• Join FlightAware (Why Join?)
  • Login
  • US Flag 
01:50AM EDT


 

Airport Tracker/Info


-or-


 

Live Flight TrackerFlight Track Log ✈ EJA982 ✈ 25-May-2013 ✈ TXKF / BDA - KHPN

Flight Track Log - Related Links

Times and Time Zones

All times are in EDT time to prevent confusion due to time zone crossing. See the EJA982 flight status page for this flight to view local times or setup timezone preferences in your user account.

Time Position Orientation Groundspeed Altitude Reporting Facility
EDT Latitude Longitude Course Direction KTS MPH feet Rate Location/Type
11:20AM 33.1943 -65.4317 323° Northwest  Level Estimated
11:21AM 33.2961 -65.5253 322° Northwest  Level Estimated
11:22AM 33.3978 -65.6191 322° Northwest  Level Estimated
11:23AM 33.4994 -65.7131 322° Northwest  Level Estimated
11:24AM 33.6010 -65.8073 322° Northwest  Level Estimated
11:24AM 32.5667 -65.0000 307° West 507 583 13,000  Level New York Oceanic (ODAPS)
11:25AM 33.7025 -65.9018 322° Northwest  Level Estimated
11:26AM 33.8039 -65.9964 322° Northwest  Level Estimated
11:27AM 33.9053 -66.0913 322° Northwest  Level Estimated
11:27AM 32.5667 -65.0000 307° West 507 583 16,500  Level New York Oceanic (ODAPS)
11:28AM 34.0065 -66.1864 322° Northwest  Level Estimated
11:29AM 34.1077 -66.2818 322° Northwest  Level Estimated
11:30AM 34.2090 -66.3775 322° Northwest  Level Estimated
11:30AM 32.5667 -65.0000 307° West 507 583 22,000  Level New York Oceanic (ODAPS)
11:31AM 33.1501 -65.9410 306° West 507 583 13,000 -5,520 Descending FlightAware Transoceanic
11:32AM 33.2328 -66.0764 306° West 507 583 13,000 1,740 Level FlightAware Transoceanic
11:33AM 33.3567 -66.2800 306° West 507 583 16,500 1,740 Climbing FlightAware Transoceanic
11:34AM 33.4436 -66.4237 306° West 507 583 16,500  Level FlightAware Transoceanic
11:35AM 33.5304 -66.5676 306° West 507 583 16,500 2,700 Level FlightAware Transoceanic
11:36AM 33.6171 -66.7119 306° West 507 583 22,000 10,080 Climbing FlightAware Transoceanic
11:36AM 32.5667 -65.0000 307° West 507 583 30,000 13,320 Climbing New York Oceanic (ODAPS)
11:36AM 32.5667 -65.0000 307° West 479 551 30,000 -12,000 Level New York Oceanic (ODAPS)
11:37AM 33.7035 -66.8564 306° West 507 583 22,000 -5,760 Descending FlightAware Transoceanic
11:38AM 33.7898 -67.0012 306° West 507 583 22,000  Level FlightAware Transoceanic
11:39AM 33.8760 -67.1463 306° West 507 583 22,000  Level FlightAware Transoceanic
11:40AM 33.9619 -67.2917 305° West 507 583 22,000  Level FlightAware Transoceanic
11:41AM 34.0477 -67.4373 305° West 507 583 22,000 3,960 Level FlightAware Transoceanic
11:42AM 34.1333 -67.5833 323° Northwest 507 583 30,000 3,960 Climbing FlightAware Transoceanic
11:43AM 34.0563 -67.4519 305° West 479 551 30,000  Level FlightAware Transoceanic
11:44AM 34.1333 -67.5833 323° Northwest 479 551 30,000  Level FlightAware Transoceanic
11:45AM 34.2584 -67.6956 323° Northwest 479 551 30,000  Level FlightAware Transoceanic
11:46AM 34.3834 -67.8082 323° Northwest 479 551 30,000  Level FlightAware Transoceanic
11:47AM 34.5083 -67.9211 323° Northwest 479 551 30,000  Level FlightAware Transoceanic
11:48AM 34.6331 -68.0344 323° Northwest 479 551 30,000  Level FlightAware Transoceanic
11:49AM 34.7578 -68.1480 323° Northwest 479 551 30,000  Level FlightAware Transoceanic
11:50AM 34.8824 -68.2620 323° Northwest 479 551 30,000  Level FlightAware Transoceanic
11:51AM 35.0069 -68.3763 323° Northwest 479 551 30,000  Level FlightAware Transoceanic
11:52AM 35.1312 -68.4909 323° Northwest 479 551 30,000  Level FlightAware Transoceanic
11:52AM 34.1333 -67.5833 323° Northwest 537 618 30,000  Level New York Oceanic (ODAPS)
11:53AM 35.2555 -68.6059 323° Northwest 479 551 30,000  Level FlightAware Transoceanic
11:54AM 35.3797 -68.7213 323° Northwest 479 551 30,000  Level FlightAware Transoceanic
11:55AM 35.5037 -68.8370 323° Northwest 479 551 30,000  Level FlightAware Transoceanic
11:56AM 35.6276 -68.9530 323° Northwest 479 551 30,000  Level FlightAware Transoceanic
11:57AM 35.7515 -69.0695 323° Northwest 479 551 30,000  Level FlightAware Transoceanic
11:58AM 35.8175 -69.1317 323° Northwest 537 618 30,000  Level FlightAware Transoceanic
11:59AM 35.9370 -69.2448 322° Northwest 537 618 30,000  Level FlightAware Transoceanic
12:00PM 36.0564 -69.3582 322° Northwest 537 618 30,000  Level FlightAware Transoceanic
12:01PM 36.1757 -69.4720 322° Northwest 537 618 30,000  Level FlightAware Transoceanic
12:02PM 36.2949 -69.5861 322° Northwest 537 618 30,000  Level FlightAware Transoceanic
12:03PM 36.4140 -69.7005 322° Northwest 537 618 30,000  Level FlightAware Transoceanic
12:04PM 36.5330 -69.8154 322° Northwest 537 618 30,000  Level FlightAware Transoceanic
12:04PM 36.1667 -69.4500 322° Northwest 592 681 30,000  Level New York Oceanic (ODAPS)
12:05PM 36.6519 -69.9305 322° Northwest 537 618 30,000  Level FlightAware Transoceanic
12:06PM 36.7706 -70.0461 322° Northwest 537 618 30,000  Level FlightAware Transoceanic
12:07PM 36.8893 -70.1619 322° Northwest 537 618 30,000  Level FlightAware Transoceanic
12:08PM 37.0078 -70.2782 322° Northwest 537 618 30,000  Level FlightAware Transoceanic
12:09PM 37.1263 -70.3948 322° Northwest 537 618 30,000  Level FlightAware Transoceanic
12:10PM 37.4597 -70.7234 321° Northwest 592 681 30,000  Level FlightAware Transoceanic
12:11PM 37.5883 -70.8531 321° Northwest 592 681 30,000  Level FlightAware Transoceanic
12:12PM 37.7167 -70.9833 330° Northwest 592 681 30,000  Level FlightAware Transoceanic
12:13PM 37.8459 -71.0786 330° Northwest 592 681 30,000  Level FlightAware Transoceanic
12:14PM 37.8353 -71.0772 330° Northwest 542 624 30,000  Level New York Center
12:15PM 37.9725 -71.1411 340° North 540 621 30,000  Level New York Center
12:16PM 38.1142 -71.2186 337° Northwest 540 621 30,000  Level New York Center
12:17PM 38.2536 -71.2831 340° North 540 621 30,000  Level New York Center
12:18PM 38.3908 -71.3556 338° Northwest 535 616 30,000  Level New York Center
12:19PM 38.5322 -71.4231 340° North 535 616 30,000  Level New York Center
12:20PM 38.6736 -71.4911 339° North 535 616 30,000  Level New York Center
12:21PM 38.8131 -71.5592 339° North 535 616 30,000  Level New York Center
12:22PM 38.9522 -71.6328 338° Northwest 535 616 30,000  Level New York Center
12:23PM 39.0953 -71.7014 340° North 535 616 30,000  Level New York Center
12:24PM 39.2344 -71.7731 338° Northwest 535 616 30,000  Level New York Center
12:25PM 39.3756 -71.8450 338° Northwest 535 616 30,000 -120 Level New York Center
12:26PM 39.5144 -71.9172 338° Northwest 535 616 29,800 -1,740 Descending New York Center
12:27PM 39.6494 -71.9842 339° North 529 609 26,600 -3,120 Descending New York Center
12:28PM 39.7800 -72.0511 338° Northwest 517 595 23,600 -2,760 Descending New York Center
12:31PM 40.1433 -72.2392 338° Northwest 567 652 14,700 -2,460 Descending Boston Center
12:32PM 40.2581 -72.2958 339° North 493 567 13,000 -1,020 Descending Boston Center
12:33PM 40.3622 -72.3503 338° Northwest 445 512 12,700 -660 Descending Boston Center
12:35PM 40.5667 -72.4500 340° North 393 452 11,100 -540 Descending New York TRACON
12:36PM 40.6667 -72.5167 333° Northwest 387 445 11,100 -480 Level New York TRACON
12:37PM 40.7667 -72.5667 339° North 377 434 10,200 -840 Descending New York TRACON
12:38PM 40.8333 -72.6000 339° North 265 305 9,600 -1,320 Descending New York TRACON
12:39PM 40.9000 -72.6333 339° North 263 303 7,800 -1,200 Descending New York TRACON
12:40PM 40.9833 -72.6667 343° North 265 305 7,100 -420 Descending New York TRACON
12:41PM 41.0333 -72.7333 315° West 275 316 7,000 -60 Descending New York TRACON
12:42PM 41.0667 -72.8167 298° West 265 305 7,000  Level New York TRACON
12:44PM 41.1000 -72.9333 291° West 271 312 7,100  Climbing New York TRACON
12:45PM 41.1333 -73.0167 298° West 271 312 7,100 -660 Level New York TRACON
12:46PM 41.1500 -73.1000 285° West 260 299 5,800 -1,260 Descending New York TRACON
12:47PM 41.1667 -73.2000 283° West 255 293 4,600 -900 Descending New York TRACON
12:48PM 41.1667 -73.2833 270° West 261 300 4,000 -600 Descending New York TRACON
12:49PM 41.1000 -73.3667 223° Southwest 268 308 3,500 -540 Descending New York TRACON
12:50PM 41.0667 -73.4333 236° Southwest 253 291 3,000 -240 Descending New York TRACON
12:51PM 41.0167 -73.5000 225° Southwest 214 246 3,000 -480 Level New York TRACON
12:52PM 40.9833 -73.5500 229° Southwest 191 220 2,000 -540 Descending New York TRACON
12:53PM 40.9500 -73.6000 229° Southwest 184 212 2,000  Level New York TRACON